createdAt,value
2022-12-28T00:01:45.687Z,4.50
2022-12-28T00:11:52.903Z,4.40
2022-12-28T00:27:00.073Z,4.40
2022-12-28T00:32:02.300Z,4.50
2022-12-28T00:37:12.308Z,4.60
2022-12-28T00:42:15.397Z,4.70
2022-12-28T00:47:17.535Z,4.80
2022-12-28T00:52:19.710Z,5.00
2022-12-28T00:57:21.816Z,5.10
2022-12-28T01:02:23.964Z,5.20
2022-12-28T01:07:26.037Z,5.40
2022-12-28T01:12:33.151Z,5.50
2022-12-28T01:17:40.208Z,5.60
2022-12-28T01:22:42.315Z,5.80
2022-12-28T01:27:44.434Z,5.80
2022-12-28T01:32:46.619Z,5.90
2022-12-28T01:37:48.719Z,6.00
2022-12-28T01:42:50.927Z,6.10
2022-12-28T01:47:55.744Z,6.20
2022-12-28T01:53:02.181Z,6.20
2022-12-28T01:58:20.041Z,6.30
2022-12-28T02:03:26.711Z,6.30
2022-12-28T02:08:44.946Z,6.40
2022-12-28T02:13:49.981Z,6.40
2022-12-28T02:18:53.093Z,6.50
2022-12-28T02:24:09.999Z,6.50
2022-12-28T02:29:15.629Z,6.50
2022-12-28T02:34:50.017Z,6.60
2022-12-28T02:40:01.610Z,6.60
2022-12-28T02:45:22.702Z,6.70
2022-12-28T02:51:04.284Z,6.70
2022-12-28T02:56:30.022Z,6.80
2022-12-28T03:01:45.632Z,6.80
2022-12-28T03:07:37.957Z,6.90
2022-12-28T03:13:01.447Z,7.00
2022-12-28T03:18:28.202Z,7.00
2022-12-28T03:23:51.580Z,7.10
2022-12-28T03:29:13.648Z,7.20
2022-12-28T03:34:17.220Z,7.20
2022-12-28T03:39:28.131Z,7.30
2022-12-28T03:44:34.153Z,7.40
2022-12-28T03:49:37.174Z,7.50
2022-12-28T03:54:41.062Z,7.50
2022-12-28T03:59:44.037Z,7.50
2022-12-28T04:04:46.482Z,7.60
2022-12-28T04:09:48.625Z,7.60
2022-12-28T04:14:50.793Z,7.60
2022-12-28T04:19:53.647Z,7.70
2022-12-28T04:24:55.753Z,7.70
2022-12-28T04:29:57.896Z,7.70
2022-12-28T04:35:00.067Z,7.90
2022-12-28T04:40:02.585Z,7.80
2022-12-28T04:45:05.221Z,7.80
2022-12-28T04:50:07.625Z,7.90
2022-12-28T04:55:32.152Z,7.90
2022-12-28T05:00:31.909Z,8.00
2022-12-28T05:05:34.226Z,8.00
2022-12-28T05:10:36.468Z,8.00
2022-12-28T05:15:38.530Z,8.10
2022-12-28T05:20:40.606Z,8.10
2022-12-28T05:25:42.706Z,8.10
2022-12-28T05:30:44.809Z,8.10
2022-12-28T05:35:46.881Z,8.10
2022-12-28T05:40:49.434Z,8.20
2022-12-28T05:45:51.428Z,8.20
2022-12-28T05:50:56.895Z,8.20
2022-12-28T05:56:13.960Z,8.30
2022-12-28T06:01:19.891Z,8.30
2022-12-28T06:06:22.384Z,8.30
2022-12-28T06:11:26.649Z,8.30
2022-12-28T06:16:31.354Z,8.40
2022-12-28T06:21:34.939Z,8.40
2022-12-28T06:26:39.051Z,8.50
2022-12-28T06:31:47.046Z,8.40
2022-12-28T06:36:52.534Z,8.50
2022-12-28T06:41:54.648Z,8.40
2022-12-28T06:46:56.715Z,8.50
2022-12-28T06:51:58.911Z,8.50
2022-12-28T06:57:01.046Z,8.50
2022-12-28T07:07:08.678Z,8.50
2022-12-28T07:12:10.850Z,8.50
2022-12-28T07:17:12.996Z,8.60
2022-12-28T07:22:15.240Z,8.60
2022-12-28T07:27:17.316Z,8.70
2022-12-28T07:32:19.528Z,8.70
2022-12-28T07:42:24.229Z,8.80
2022-12-28T07:47:26.428Z,8.80
2022-12-28T07:52:28.535Z,8.80
2022-12-28T07:57:30.790Z,8.90
2022-12-28T08:02:33.539Z,8.90
2022-12-28T08:07:35.627Z,8.90
2022-12-28T08:12:37.711Z,8.90
2022-12-28T08:17:39.830Z,9.00
2022-12-28T08:22:41.928Z,9.10
2022-12-28T08:27:44.027Z,9.20
2022-12-28T08:32:46.127Z,9.20
2022-12-28T08:37:48.358Z,9.30
2022-12-28T08:42:50.523Z,9.40
2022-12-28T08:47:53.528Z,9.50
2022-12-28T08:52:55.636Z,9.70
2022-12-28T08:57:57.780Z,9.60
2022-12-28T09:03:00.155Z,9.80
2022-12-28T09:08:02.298Z,9.90
2022-12-28T09:13:04.354Z,10.00
2022-12-28T09:18:07.518Z,10.10
2022-12-28T09:23:09.584Z,10.20
2022-12-28T09:33:32.852Z,10.40
2022-12-28T09:38:34.950Z,10.50
2022-12-28T09:43:41.409Z,10.70
2022-12-28T09:48:46.646Z,10.80
2022-12-28T09:53:48.939Z,10.90
2022-12-28T09:58:52.287Z,11.00
2022-12-28T10:03:56.806Z,11.10
2022-12-28T10:09:01.472Z,11.20
2022-12-28T10:14:16.339Z,11.20
2022-12-28T10:19:22.617Z,11.40
2022-12-28T10:24:33.046Z,11.50
2022-12-28T10:29:35.497Z,11.50
2022-12-28T10:34:45.126Z,11.60
2022-12-28T10:40:02.139Z,11.70
2022-12-28T10:45:16.538Z,11.70
2022-12-28T10:51:12.405Z,11.80
2022-12-28T10:56:14.505Z,11.90
2022-12-28T11:06:27.051Z,12.30
2022-12-28T11:11:30.139Z,12.50
2022-12-28T11:16:37.451Z,12.70
2022-12-28T11:21:42.328Z,13.00
2022-12-28T11:26:47.991Z,12.90
2022-12-28T11:31:59.190Z,12.90
2022-12-28T11:37:01.445Z,13.00
2022-12-28T11:42:37.115Z,12.80
2022-12-28T11:47:33.353Z,12.70
2022-12-28T11:52:45.964Z,12.70
2022-12-28T11:57:48.056Z,12.70
2022-12-28T12:02:56.578Z,12.60
2022-12-28T12:07:58.867Z,12.80
2022-12-28T12:13:22.244Z,12.90
2022-12-28T12:18:27.230Z,13.20
2022-12-28T12:23:42.642Z,13.30
2022-12-28T12:28:48.699Z,13.60
2022-12-28T12:33:52.754Z,13.70
2022-12-28T12:39:12.243Z,13.80
2022-12-28T12:44:17.229Z,13.80
2022-12-28T12:49:28.635Z,13.90
2022-12-28T12:55:10.411Z,14.00
2022-12-28T13:00:20.435Z,13.90
2022-12-28T13:05:26.786Z,14.00
2022-12-28T13:10:37.338Z,14.00
2022-12-28T13:15:44.175Z,13.80
2022-12-28T13:20:54.459Z,13.80
2022-12-28T13:26:00.829Z,13.60
2022-12-28T13:31:23.803Z,13.60
2022-12-28T13:36:26.801Z,13.40
2022-12-28T13:41:28.956Z,13.40
2022-12-28T13:46:31.924Z,13.30
2022-12-28T13:51:38.537Z,13.30
2022-12-28T13:56:42.607Z,13.20
2022-12-28T14:01:50.113Z,13.20
2022-12-28T14:11:57.059Z,13.20
2022-12-28T14:17:02.331Z,13.10
2022-12-28T14:22:29.407Z,13.10
2022-12-28T14:27:36.417Z,13.10
2022-12-28T14:32:43.237Z,13.10
2022-12-28T14:37:49.860Z,13.00
2022-12-28T14:42:53.458Z,13.00
2022-12-28T14:47:56.382Z,12.90
2022-12-28T14:53:05.807Z,12.90
2022-12-28T14:58:19.470Z,12.90
2022-12-28T15:03:23.323Z,12.90
2022-12-28T15:08:27.599Z,12.80
2022-12-28T15:13:29.951Z,12.80
2022-12-28T15:18:33.238Z,12.70
2022-12-28T15:23:35.694Z,12.70
2022-12-28T15:33:41.036Z,12.50
2022-12-28T15:38:43.255Z,12.50
2022-12-28T15:43:49.177Z,12.40
2022-12-28T15:48:51.828Z,12.40
2022-12-28T15:53:53.905Z,12.30
2022-12-28T15:58:57.927Z,12.20
2022-12-28T16:04:02.488Z,12.10
2022-12-28T16:09:04.659Z,12.10
2022-12-28T16:14:08.958Z,12.00
2022-12-28T16:19:14.282Z,12.00
2022-12-28T16:24:17.288Z,12.00
2022-12-28T16:29:19.527Z,12.00
2022-12-28T16:34:21.739Z,11.90
2022-12-28T16:39:24.377Z,11.90
2022-12-28T16:44:27.829Z,11.90
2022-12-28T16:49:30.005Z,11.90
2022-12-28T16:54:32.136Z,11.80
2022-12-28T16:59:34.278Z,11.80
2022-12-28T17:04:36.477Z,11.80
2022-12-28T17:09:42.960Z,11.80
2022-12-28T17:14:47.567Z,11.70
2022-12-28T17:19:49.721Z,11.70
2022-12-28T17:24:52.289Z,11.60
2022-12-28T17:29:54.399Z,11.60
2022-12-28T17:34:56.591Z,11.60
2022-12-28T17:39:58.748Z,11.60
2022-12-28T17:45:04.747Z,11.60
2022-12-28T17:50:10.052Z,11.60
2022-12-28T17:55:12.192Z,11.60
2022-12-28T18:00:15.104Z,11.60
2022-12-28T18:05:17.391Z,11.60
2022-12-28T18:15:29.821Z,11.60
2022-12-28T18:20:35.143Z,11.70
2022-12-28T18:25:37.949Z,11.70
2022-12-28T18:30:41.098Z,11.60
2022-12-28T18:35:43.366Z,11.60
2022-12-28T18:40:53.632Z,11.60
2022-12-28T18:45:58.865Z,11.60
2022-12-28T18:51:07.007Z,11.60
2022-12-28T18:56:12.488Z,11.60
2022-12-28T19:01:40.078Z,11.60
2022-12-28T19:06:40.842Z,11.60
2022-12-28T19:11:44.008Z,11.60
2022-12-28T19:16:46.184Z,11.60
2022-12-28T19:21:52.335Z,11.60
2022-12-28T19:26:57.208Z,11.50
2022-12-28T19:31:59.362Z,11.50
2022-12-28T19:37:01.532Z,11.50
2022-12-28T19:42:03.800Z,11.50
2022-12-28T19:52:08.934Z,11.40
2022-12-28T19:57:11.057Z,11.40
2022-12-28T20:02:13.189Z,11.50
2022-12-28T20:07:15.470Z,11.50
2022-12-28T20:12:19.369Z,11.60
2022-12-28T20:17:21.442Z,11.60
2022-12-28T20:22:23.609Z,11.70
2022-12-28T20:27:30.288Z,11.80
2022-12-28T20:32:32.515Z,11.80
2022-12-28T20:37:34.642Z,11.80
2022-12-28T20:42:55.333Z,11.80
2022-12-28T20:47:57.425Z,11.90
2022-12-28T20:52:59.574Z,11.80
2022-12-28T20:58:01.744Z,11.80
2022-12-28T21:03:03.890Z,11.90
2022-12-28T21:08:06.063Z,11.90
2022-12-28T21:13:08.163Z,11.90
2022-12-28T21:18:10.308Z,12.00
2022-12-28T21:23:12.602Z,12.10
2022-12-28T21:28:14.927Z,12.10
2022-12-28T21:33:17.080Z,12.10
2022-12-28T21:38:19.190Z,12.20
2022-12-28T21:43:21.268Z,12.20
2022-12-28T21:48:23.443Z,12.10
2022-12-28T21:53:25.572Z,12.20
2022-12-28T21:58:27.644Z,12.20
2022-12-28T22:03:48.186Z,12.20
2022-12-28T22:09:08.938Z,12.20
2022-12-28T22:14:11.108Z,12.20
2022-12-28T22:19:13.238Z,12.20
2022-12-28T22:24:15.404Z,12.20
2022-12-28T22:29:17.914Z,12.20
2022-12-28T22:39:22.645Z,12.30
2022-12-28T22:49:27.426Z,12.20
2022-12-28T22:54:29.535Z,12.20
2022-12-28T22:59:31.643Z,12.20
2022-12-28T23:04:33.787Z,12.20
2022-12-28T23:09:36.418Z,12.20
2022-12-28T23:14:57.313Z,12.10
2022-12-28T23:20:18.132Z,12.20
2022-12-28T23:25:42.126Z,12.20
2022-12-28T23:30:47.352Z,12.40
2022-12-28T23:35:49.473Z,12.70
2022-12-28T23:41:11.516Z,13.00
2022-12-28T23:46:13.651Z,13.20
2022-12-28T23:51:17.756Z,13.40
2022-12-28T23:56:19.869Z,13.60
